sensor_id;sensor_type;location;lat;lon;timestamp;pressure;altitude;pressure_sealevel;temperature;humidity
13581;BME280;6861;46.170;7.222;2024-02-14T00:01:12;96696.94;;;7.87;45.85
13581;BME280;6861;46.170;7.222;2024-02-14T00:03:41;96713.69;;;7.92;45.44
13581;BME280;6861;46.170;7.222;2024-02-14T00:06:10;96707.91;;;7.89;45.90
13581;BME280;6861;46.170;7.222;2024-02-14T00:08:39;96703.16;;;7.86;46.77
13581;BME280;6861;46.170;7.222;2024-02-14T00:11:07;96715.63;;;7.84;46.34
13581;BME280;6861;46.170;7.222;2024-02-14T00:13:35;96722.97;;;7.87;46.14
13581;BME280;6861;46.170;7.222;2024-02-14T00:16:06;96717.78;;;7.87;45.19
13581;BME280;6861;46.170;7.222;2024-02-14T00:18:35;96722.66;;;7.84;45.30
13581;BME280;6861;46.170;7.222;2024-02-14T00:21:03;96725.47;;;7.82;45.45
13581;BME280;6861;46.170;7.222;2024-02-14T00:23:32;96726.28;;;7.83;46.29
13581;BME280;6861;46.170;7.222;2024-02-14T00:26:00;96717.09;;;7.80;45.84
13581;BME280;6861;46.170;7.222;2024-02-14T00:28:29;96722.56;;;7.79;45.15
13581;BME280;6861;46.170;7.222;2024-02-14T00:30:58;96722.56;;;7.79;45.64
13581;BME280;6861;46.170;7.222;2024-02-14T00:33:27;96735.91;;;7.82;44.90
13581;BME280;6861;46.170;7.222;2024-02-14T00:35:56;96736.47;;;7.84;45.77
13581;BME280;6861;46.170;7.222;2024-02-14T00:38:24;96736.13;;;7.81;45.21
13581;BME280;6861;46.170;7.222;2024-02-14T00:40:52;96733.31;;;7.82;46.50
13581;BME280;6861;46.170;7.222;2024-02-14T00:43:21;96728.56;;;7.79;46.32
13581;BME280;6861;46.170;7.222;2024-02-14T00:45:49;96721.09;;;7.71;46.19
13581;BME280;6861;46.170;7.222;2024-02-14T00:48:17;96716.34;;;7.68;46.52
13581;BME280;6861;46.170;7.222;2024-02-14T00:50:47;96734.00;;;7.66;45.47
13581;BME280;6861;46.170;7.222;2024-02-14T00:53:15;96722.00;;;7.65;45.55
13581;BME280;6861;46.170;7.222;2024-02-14T00:55:43;96720.53;;;7.57;45.51
13581;BME280;6861;46.170;7.222;2024-02-14T00:58:11;96718.03;;;7.51;46.81
13581;BME280;6861;46.170;7.222;2024-02-14T01:00:39;96717.25;;;7.39;46.73
13581;BME280;6861;46.170;7.222;2024-02-14T01:03:08;96717.00;;;7.29;46.00
13581;BME280;6861;46.170;7.222;2024-02-14T01:05:39;96705.13;;;7.21;46.14
13581;BME280;6861;46.170;7.222;2024-02-14T01:08:09;96714.16;;;7.18;46.63
13581;BME280;6861;46.170;7.222;2024-02-14T01:10:37;96710.41;;;7.14;47.23
13581;BME280;6861;46.170;7.222;2024-02-14T01:13:06;96717.66;;;7.12;47.06
13581;BME280;6861;46.170;7.222;2024-02-14T01:15:34;96724.78;;;7.17;47.16
13581;BME280;6861;46.170;7.222;2024-02-14T01:18:02;96725.16;;;7.20;46.93
13581;BME280;6861;46.170;7.222;2024-02-14T01:20:30;96726.28;;;7.24;46.77
13581;BME280;6861;46.170;7.222;2024-02-14T01:22:59;96731.72;;;7.23;46.78
13581;BME280;6861;46.170;7.222;2024-02-14T01:25:28;96730.91;;;7.22;46.52
13581;BME280;6861;46.170;7.222;2024-02-14T01:27:57;96734.78;;;7.32;46.55
13581;BME280;6861;46.170;7.222;2024-02-14T01:30:25;96733.88;;;7.38;46.55
13581;BME280;6861;46.170;7.222;2024-02-14T01:32:54;96730.25;;;7.39;46.59
13581;BME280;6861;46.170;7.222;2024-02-14T01:35:22;96730.13;;;7.34;47.05
13581;BME280;6861;46.170;7.222;2024-02-14T01:37:51;96722.66;;;7.26;46.45
13581;BME280;6861;46.170;7.222;2024-02-14T01:40:19;96730.69;;;7.24;47.50
13581;BME280;6861;46.170;7.222;2024-02-14T01:42:49;96735.44;;;7.15;46.42
13581;BME280;6861;46.170;7.222;2024-02-14T01:45:19;96737.47;;;7.13;46.76
13581;BME280;6861;46.170;7.222;2024-02-14T01:47:48;96730.22;;;7.15;47.40
13581;BME280;6861;46.170;7.222;2024-02-14T01:50:17;96735.22;;;7.17;47.04
13581;BME280;6861;46.170;7.222;2024-02-14T01:52:52;96720.81;;;7.14;46.80
13581;BME280;6861;46.170;7.222;2024-02-14T01:55:21;96718.44;;;7.13;46.48
13581;BME280;6861;46.170;7.222;2024-02-14T01:57:51;96725.47;;;7.12;46.55
13581;BME280;6861;46.170;7.222;2024-02-14T02:00:20;96724.91;;;7.10;47.57
13581;BME280;6861;46.170;7.222;2024-02-14T02:02:48;96721.50;;;7.10;47.55
13581;BME280;6861;46.170;7.222;2024-02-14T02:05:16;96718.91;;;7.10;47.84
13581;BME280;6861;46.170;7.222;2024-02-14T02:07:46;96725.03;;;7.15;47.45
13581;BME280;6861;46.170;7.222;2024-02-14T02:10:15;96725.59;;;7.17;46.61
13581;BME280;6861;46.170;7.222;2024-02-14T02:12:43;96728.06;;;7.12;47.10
13581;BME280;6861;46.170;7.222;2024-02-14T02:15:13;96733.72;;;7.09;46.51
13581;BME280;6861;46.170;7.222;2024-02-14T02:17:42;96744.13;;;7.09;46.65
13581;BME280;6861;46.170;7.222;2024-02-14T02:20:12;96739.63;;;7.16;47.43
13581;BME280;6861;46.170;7.222;2024-02-14T02:22:45;96737.47;;;7.25;47.05
13581;BME280;6861;46.170;7.222;2024-02-14T02:25:15;96743.03;;;7.29;47.52
13581;BME280;6861;46.170;7.222;2024-02-14T02:27:43;96742.03;;;7.30;47.44
13581;BME280;6861;46.170;7.222;2024-02-14T02:30:11;96740.44;;;7.29;47.06
13581;BME280;6861;46.170;7.222;2024-02-14T02:32:42;96740.44;;;7.29;46.89
13581;BME280;6861;46.170;7.222;2024-02-14T02:35:10;96741.00;;;7.31;46.64
13581;BME280;6861;46.170;7.222;2024-02-14T02:37:39;96743.38;;;7.32;47.30
13581;BME280;6861;46.170;7.222;2024-02-14T02:40:10;96759.91;;;7.38;47.05
13581;BME280;6861;46.170;7.222;2024-02-14T02:42:39;96756.06;;;7.40;46.65
13581;BME280;6861;46.170;7.222;2024-02-14T02:45:08;96766.38;;;7.47;46.29
13581;BME280;6861;46.170;7.222;2024-02-14T02:47:39;96763.34;;;7.50;47.44
13581;BME280;6861;46.170;7.222;2024-02-14T02:50:08;96762.88;;;7.53;46.19
13581;BME280;6861;46.170;7.222;2024-02-14T02:52:36;96760.84;;;7.55;46.26
13581;BME280;6861;46.170;7.222;2024-02-14T02:55:06;96759.25;;;7.54;46.37
13581;BME280;6861;46.170;7.222;2024-02-14T02:57:36;96756.66;;;7.54;46.71
13581;BME280;6861;46.170;7.222;2024-02-14T03:00:07;96762.44;;;7.56;47.42
13581;BME280;6861;46.170;7.222;2024-02-14T03:02:35;96749.41;;;7.56;46.69
13581;BME280;6861;46.170;7.222;2024-02-14T03:05:07;96754.97;;;7.60;46.91
13581;BME280;6861;46.170;7.222;2024-02-14T03:07:37;96747.38;;;7.58;46.94
13581;BME280;6861;46.170;7.222;2024-02-14T03:10:07;96743.75;;;7.59;46.75
13581;BME280;6861;46.170;7.222;2024-02-14T03:12:36;96753.03;;;7.55;47.21
13581;BME280;6861;46.170;7.222;2024-02-14T03:15:06;96748.72;;;7.49;47.13
13581;BME280;6861;46.170;7.222;2024-02-14T03:17:37;96754.84;;;7.43;46.31
13581;BME280;6861;46.170;7.222;2024-02-14T03:20:07;96764.44;;;7.42;47.33
13581;BME280;6861;46.170;7.222;2024-02-14T03:22:43;96760.03;;;7.43;47.12
13581;BME280;6861;46.170;7.222;2024-02-14T03:25:13;96750.06;;;7.40;47.05
13581;BME280;6861;46.170;7.222;2024-02-14T03:27:45;96751.97;;;7.33;46.95
13581;BME280;6861;46.170;7.222;2024-02-14T03:30:16;96755.94;;;7.23;48.03
13581;BME280;6861;46.170;7.222;2024-02-14T03:32:45;96754.34;;;7.22;46.65
13581;BME280;6861;46.170;7.222;2024-02-14T03:35:14;96763.16;;;7.21;46.55
13581;BME280;6861;46.170;7.222;2024-02-14T03:37:45;96769.50;;;7.26;47.10
13581;BME280;6861;46.170;7.222;2024-02-14T03:40:15;96761.84;;;7.31;47.17
13581;BME280;6861;46.170;7.222;2024-02-14T03:42:45;96762.53;;;7.38;47.25
13581;BME280;6861;46.170;7.222;2024-02-14T03:45:13;96772.50;;;7.41;46.65
13581;BME280;6861;46.170;7.222;2024-02-14T03:47:42;96772.94;;;7.38;47.78
13581;BME280;6861;46.170;7.222;2024-02-14T03:50:10;96765.91;;;7.27;47.93
13581;BME280;6861;46.170;7.222;2024-02-14T03:52:38;96757.72;;;7.11;48.33
13581;BME280;6861;46.170;7.222;2024-02-14T03:55:09;96765.59;;;6.93;48.50
13581;BME280;6861;46.170;7.222;2024-02-14T03:57:40;96770.97;;;6.80;48.57
13581;BME280;6861;46.170;7.222;2024-02-14T04:00:12;96784.06;;;6.73;48.25
13581;BME280;6861;46.170;7.222;2024-02-14T04:02:40;96785.53;;;6.69;49.07
13581;BME280;6861;46.170;7.222;2024-02-14T04:05:08;96788.44;;;6.61;48.76
13581;BME280;6861;46.170;7.222;2024-02-14T04:07:37;96786.91;;;6.53;48.39
13581;BME280;6861;46.170;7.222;2024-02-14T04:10:06;96782.59;;;6.47;49.26
13581;BME280;6861;46.170;7.222;2024-02-14T04:12:35;96785.84;;;6.43;48.99
13581;BME280;6861;46.170;7.222;2024-02-14T04:15:05;96789.09;;;6.38;49.51
13581;BME280;6861;46.170;7.222;2024-02-14T04:17:35;96791.97;;;6.30;49.61
13581;BME280;6861;46.170;7.222;2024-02-14T04:20:04;96790.81;;;6.26;48.99
13581;BME280;6861;46.170;7.222;2024-02-14T04:22:33;96792.78;;;6.31;49.15
13581;BME280;6861;46.170;7.222;2024-02-14T04:25:01;96798.47;;;6.39;49.75
13581;BME280;6861;46.170;7.222;2024-02-14T04:27:29;96803.59;;;6.46;48.95
13581;BME280;6861;46.170;7.222;2024-02-14T04:29:57;96800.22;;;6.45;49.71
13581;BME280;6861;46.170;7.222;2024-02-14T04:32:26;96804.84;;;6.43;48.61
13581;BME280;6861;46.170;7.222;2024-02-14T04:34:56;96807.78;;;6.47;48.93
13581;BME280;6861;46.170;7.222;2024-02-14T04:37:25;96817.75;;;6.50;49.08
13581;BME280;6861;46.170;7.222;2024-02-14T04:39:53;96800.56;;;6.49;48.87
13581;BME280;6861;46.170;7.222;2024-02-14T04:42:21;96809.75;;;6.51;48.58
13581;BME280;6861;46.170;7.222;2024-02-14T04:44:49;96807.72;;;6.53;48.90
13581;BME280;6861;46.170;7.222;2024-02-14T04:47:17;96811.31;;;6.52;48.45
13581;BME280;6861;46.170;7.222;2024-02-14T04:49:47;96804.97;;;6.48;48.65
13581;BME280;6861;46.170;7.222;2024-02-14T04:52:17;96796.03;;;6.44;48.95
13581;BME280;6861;46.170;7.222;2024-02-14T04:54:45;96799.06;;;6.41;49.68
13581;BME280;6861;46.170;7.222;2024-02-14T04:57:13;96808.28;;;6.37;49.45
13581;BME280;6861;46.170;7.222;2024-02-14T04:59:42;96816.25;;;6.42;48.68
13581;BME280;6861;46.170;7.222;2024-02-14T05:02:10;96819.41;;;6.44;49.66
13581;BME280;6861;46.170;7.222;2024-02-14T05:04:38;96815.81;;;6.45;48.97
13581;BME280;6861;46.170;7.222;2024-02-14T05:07:07;96815.81;;;6.45;48.66
13581;BME280;6861;46.170;7.222;2024-02-14T05:09:37;96817.03;;;6.43;49.93
13581;BME280;6861;46.170;7.222;2024-02-14T05:12:05;96823.25;;;6.42;48.80
13581;BME280;6861;46.170;7.222;2024-02-14T05:14:38;96825.25;;;6.40;48.69
13581;BME280;6861;46.170;7.222;2024-02-14T05:17:07;96825.47;;;6.38;49.50
13581;BME280;6861;46.170;7.222;2024-02-14T05:19:35;96824.31;;;6.34;49.39
13581;BME280;6861;46.170;7.222;2024-02-14T05:22:04;96831.03;;;6.23;49.43
13581;BME280;6861;46.170;7.222;2024-02-14T05:24:32;96828.56;;;6.10;50.41
13581;BME280;6861;46.170;7.222;2024-02-14T05:27:04;96834.50;;;5.99;49.83
13581;BME280;6861;46.170;7.222;2024-02-14T05:29:33;96839.16;;;5.90;50.04
13581;BME280;6861;46.170;7.222;2024-02-14T05:32:03;96841.16;;;5.88;50.75
13581;BME280;6861;46.170;7.222;2024-02-14T05:34:31;96844.75;;;5.87;50.25
13581;BME280;6861;46.170;7.222;2024-02-14T05:37:00;96854.34;;;5.87;50.74
13581;BME280;6861;46.170;7.222;2024-02-14T05:39:29;96840.56;;;5.86;50.46
13581;BME280;6861;46.170;7.222;2024-02-14T05:41:57;96833.78;;;5.85;50.20
13581;BME280;6861;46.170;7.222;2024-02-14T05:44:27;96842.38;;;5.86;49.79
13581;BME280;6861;46.170;7.222;2024-02-14T05:46:57;96843.97;;;5.87;50.34
13581;BME280;6861;46.170;7.222;2024-02-14T05:49:25;96850.72;;;5.95;50.15
13581;BME280;6861;46.170;7.222;2024-02-14T05:51:54;96849.88;;;6.01;49.07
13581;BME280;6861;46.170;7.222;2024-02-14T05:54:22;96849.44;;;6.04;49.23
13581;BME280;6861;46.170;7.222;2024-02-14T05:56:50;96848.97;;;6.07;49.00
13581;BME280;6861;46.170;7.222;2024-02-14T05:59:18;96856.78;;;6.07;49.11
13581;BME280;6861;46.170;7.222;2024-02-14T06:01:49;96853.75;;;6.10;48.91
13581;BME280;6861;46.170;7.222;2024-02-14T06:04:17;96857.28;;;6.15;48.40
13581;BME280;6861;46.170;7.222;2024-02-14T06:06:45;96855.22;;;6.24;48.34
13581;BME280;6861;46.170;7.222;2024-02-14T06:09:14;96857.16;;;6.29;48.81
13581;BME280;6861;46.170;7.222;2024-02-14T06:11:42;96864.75;;;6.30;48.93
13581;BME280;6861;46.170;7.222;2024-02-14T06:14:11;96879.56;;;6.30;49.24
13581;BME280;6861;46.170;7.222;2024-02-14T06:16:39;96885.97;;;6.27;49.59
13581;BME280;6861;46.170;7.222;2024-02-14T06:19:09;96878.03;;;6.22;49.68
13581;BME280;6861;46.170;7.222;2024-02-14T06:21:38;96887.47;;;6.16;50.16
13581;BME280;6861;46.170;7.222;2024-02-14T06:24:06;96894.69;;;6.14;49.57
13581;BME280;6861;46.170;7.222;2024-02-14T06:26:37;96891.88;;;6.16;50.04
13581;BME280;6861;46.170;7.222;2024-02-14T06:29:05;96892.31;;;6.13;50.24
13581;BME280;6861;46.170;7.222;2024-02-14T06:31:33;96888.53;;;6.09;50.37
13581;BME280;6861;46.170;7.222;2024-02-14T06:34:02;96883.34;;;6.09;50.65
13581;BME280;6861;46.170;7.222;2024-02-14T06:36:32;96887.09;;;6.13;50.49
13581;BME280;6861;46.170;7.222;2024-02-14T06:39:00;96884.88;;;6.16;50.51
13581;BME280;6861;46.170;7.222;2024-02-14T06:41:29;96894.41;;;6.22;50.09
13581;BME280;6861;46.170;7.222;2024-02-14T06:43:58;96890.00;;;6.23;50.08
13581;BME280;6861;46.170;7.222;2024-02-14T06:46:26;96894.41;;;6.22;50.10
13581;BME280;6861;46.170;7.222;2024-02-14T06:48:55;96887.41;;;6.23;49.93
13581;BME280;6861;46.170;7.222;2024-02-14T06:51:24;96879.84;;;6.21;50.49
13581;BME280;6861;46.170;7.222;2024-02-14T06:53:53;96883.66;;;6.19;50.41
13581;BME280;6861;46.170;7.222;2024-02-14T06:56:22;96887.09;;;6.13;49.96
13581;BME280;6861;46.170;7.222;2024-02-14T06:58:50;96900.53;;;6.10;50.58
13581;BME280;6861;46.170;7.222;2024-02-14T07:01:21;96891.72;;;6.11;50.78
13581;BME280;6861;46.170;7.222;2024-02-14T07:03:49;96891.72;;;6.11;49.80
13581;BME280;6861;46.170;7.222;2024-02-14T07:06:18;96892.94;;;6.08;50.23
13581;BME280;6861;46.170;7.222;2024-02-14T07:08:46;96904.06;;;6.15;50.17
13581;BME280;6861;46.170;7.222;2024-02-14T07:11:17;96902.00;;;6.24;50.41
13581;BME280;6861;46.170;7.222;2024-02-14T07:13:45;96909.88;;;6.36;50.29
13581;BME280;6861;46.170;7.222;2024-02-14T07:16:13;96904.19;;;6.45;49.27
13581;BME280;6861;46.170;7.222;2024-02-14T07:18:42;96892.94;;;6.51;50.14
13581;BME280;6861;46.170;7.222;2024-02-14T07:21:10;96890.13;;;6.53;49.83
13581;BME280;6861;46.170;7.222;2024-02-14T07:23:38;96892.50;;;6.54;49.09
13581;BME280;6861;46.170;7.222;2024-02-14T07:26:07;96897.28;;;6.57;49.25
13581;BME280;6861;46.170;7.222;2024-02-14T07:28:36;96906.81;;;6.64;49.83
13581;BME280;6861;46.170;7.222;2024-02-14T07:31:05;96910.44;;;6.63;49.60
13581;BME280;6861;46.170;7.222;2024-02-14T07:33:33;96908.84;;;6.62;49.47
13581;BME280;6861;46.170;7.222;2024-02-14T07:36:02;96909.13;;;6.53;49.34
13581;BME280;6861;46.170;7.222;2024-02-14T07:38:30;96903.56;;;6.50;50.70
13581;BME280;6861;46.170;7.222;2024-02-14T07:40:58;96902.91;;;6.54;49.55
13581;BME280;6861;46.170;7.222;2024-02-14T07:43:26;96886.88;;;6.57;50.66
13581;BME280;6861;46.170;7.222;2024-02-14T07:45:56;96881.69;;;6.57;50.16
13581;BME280;6861;46.170;7.222;2024-02-14T07:48:24;96888.03;;;6.62;49.79
13581;BME280;6861;46.170;7.222;2024-02-14T07:50:52;96891.06;;;6.58;49.22
13581;BME280;6861;46.170;7.222;2024-02-14T07:53:22;96891.06;;;6.58;50.01
13581;BME280;6861;46.170;7.222;2024-02-14T07:55:51;96891.22;;;6.64;50.22
13581;BME280;6861;46.170;7.222;2024-02-14T07:58:19;96887.38;;;6.66;49.47
13581;BME280;6861;46.170;7.222;2024-02-14T08:00:47;96884.78;;;6.66;49.85
13581;BME280;6861;46.170;7.222;2024-02-14T08:03:17;96885.59;;;6.67;50.45
13581;BME280;6861;46.170;7.222;2024-02-14T08:05:45;96886.22;;;6.62;50.15
13581;BME280;6861;46.170;7.222;2024-02-14T08:08:14;96880.38;;;6.67;49.28
13581;BME280;6861;46.170;7.222;2024-02-14T08:10:42;96884.13;;;6.71;50.03
13581;BME280;6861;46.170;7.222;2024-02-14T08:13:10;96877.13;;;6.71;49.61
13581;BME280;6861;46.170;7.222;2024-02-14T08:15:42;96872.38;;;6.68;49.52
13581;BME280;6861;46.170;7.222;2024-02-14T08:18:10;96879.50;;;6.73;49.31
13581;BME280;6861;46.170;7.222;2024-02-14T08:20:41;96886.31;;;6.74;49.72
13581;BME280;6861;46.170;7.222;2024-02-14T08:23:09;96882.53;;;6.70;49.54
13581;BME280;6861;46.170;7.222;2024-02-14T08:25:38;96878.78;;;6.66;49.34
13581;BME280;6861;46.170;7.222;2024-02-14T08:28:07;96875.69;;;6.57;49.00
13581;BME280;6861;46.170;7.222;2024-02-14T08:30:36;96882.84;;;6.62;49.73
13581;BME280;6861;46.170;7.222;2024-02-14T08:33:04;96889.91;;;6.73;49.32
13581;BME280;6861;46.170;7.222;2024-02-14T08:35:33;96887.03;;;6.81;49.04
13581;BME280;6861;46.170;7.222;2024-02-14T08:38:10;96877.78;;;6.85;49.35
13581;BME280;6861;46.170;7.222;2024-02-14T08:40:38;96875.31;;;6.90;49.53
13581;BME280;6861;46.170;7.222;2024-02-14T08:43:06;96873.84;;;6.94;48.28
13581;BME280;6861;46.170;7.222;2024-02-14T08:45:35;96868.88;;;6.93;48.82
13581;BME280;6861;46.170;7.222;2024-02-14T08:48:06;96865.69;;;6.90;48.81
13581;BME280;6861;46.170;7.222;2024-02-14T08:50:35;96867.50;;;6.90;48.21
13581;BME280;6861;46.170;7.222;2024-02-14T08:53:03;96856.53;;;6.88;48.10
13581;BME280;6861;46.170;7.222;2024-02-14T08:55:33;96857.91;;;6.90;48.03
13581;BME280;6861;46.170;7.222;2024-02-14T08:58:02;96860.38;;;6.97;47.85
13581;BME280;6861;46.170;7.222;2024-02-14T09:00:30;96866.31;;;7.04;48.18
13581;BME280;6861;46.170;7.222;2024-02-14T09:02:58;96857.41;;;7.12;47.47
13581;BME280;6861;46.170;7.222;2024-02-14T09:05:28;96849.63;;;7.23;48.17
13581;BME280;6861;46.170;7.222;2024-02-14T09:07:58;96851.13;;;7.31;46.95
13581;BME280;6861;46.170;7.222;2024-02-14T09:10:27;96847.44;;;7.39;47.50
13581;BME280;6861;46.170;7.222;2024-02-14T09:12:56;96841.31;;;7.45;47.55
13581;BME280;6861;46.170;7.222;2024-02-14T09:15:25;96839.88;;;7.49;46.56
13581;BME280;6861;46.170;7.222;2024-02-14T09:17:53;96842.03;;;7.52;47.08
13581;BME280;6861;46.170;7.222;2024-02-14T09:20:22;96844.75;;;7.57;47.35
13581;BME280;6861;46.170;7.222;2024-02-14T09:22:51;96848.84;;;7.65;47.58
13581;BME280;6861;46.170;7.222;2024-02-14T09:25:20;96830.97;;;7.68;46.56
13581;BME280;6861;46.170;7.222;2024-02-14T09:27:50;96835.16;;;7.69;47.36
13581;BME280;6861;46.170;7.222;2024-02-14T09:30:20;96828.47;;;7.73;46.37
13581;BME280;6861;46.170;7.222;2024-02-14T09:33:04;96826.78;;;7.79;46.68
13581;BME280;6861;46.170;7.222;2024-02-14T09:35:32;96834.34;;;7.80;46.84
13581;BME280;6861;46.170;7.222;2024-02-14T09:38:02;96837.53;;;7.82;47.06
13581;BME280;6861;46.170;7.222;2024-02-14T09:40:30;96833.81;;;7.78;46.97
13581;BME280;6861;46.170;7.222;2024-02-14T09:43:02;96836.84;;;7.75;47.59
13581;BME280;6861;46.170;7.222;2024-02-14T09:45:32;96828.81;;;7.77;47.50
13581;BME280;6861;46.170;7.222;2024-02-14T09:48:02;96833.22;;;7.88;46.84
13581;BME280;6861;46.170;7.222;2024-02-14T09:50:31;96838.88;;;7.97;46.88
13581;BME280;6861;46.170;7.222;2024-02-14T09:53:02;96830.41;;;8.01;46.43
13581;BME280;6861;46.170;7.222;2024-02-14T09:55:31;96829.59;;;8.01;46.52
13581;BME280;6861;46.170;7.222;2024-02-14T09:58:01;96830.41;;;8.01;46.61
13581;BME280;6861;46.170;7.222;2024-02-14T10:00:35;96832.53;;;8.04;46.35
13581;BME280;6861;46.170;7.222;2024-02-14T10:03:04;96828.25;;;8.10;45.89
13581;BME280;6861;46.170;7.222;2024-02-14T10:05:33;96821.78;;;8.12;45.67
13581;BME280;6861;46.170;7.222;2024-02-14T10:08:02;96820.66;;;8.20;45.46
13581;BME280;6861;46.170;7.222;2024-02-14T10:10:32;96802.97;;;8.34;45.98
13581;BME280;6861;46.170;7.222;2024-02-14T10:13:04;96804.19;;;8.54;45.07
13581;BME280;6861;46.170;7.222;2024-02-14T10:15:32;96804.47;;;8.70;44.01
13581;BME280;6861;46.170;7.222;2024-02-14T10:18:02;96802.03;;;8.80;43.57
13581;BME280;6861;46.170;7.222;2024-02-14T10:20:31;96789.19;;;8.90;43.30
13581;BME280;6861;46.170;7.222;2024-02-14T10:23:02;96791.50;;;9.03;43.21
13581;BME280;6861;46.170;7.222;2024-02-14T10:25:30;96778.72;;;9.18;42.97
13581;BME280;6861;46.170;7.222;2024-02-14T10:28:03;96780.88;;;9.38;42.03
13581;BME280;6861;46.170;7.222;2024-02-14T10:30:32;96784.28;;;9.72;41.70
13581;BME280;6861;46.170;7.222;2024-02-14T10:33:02;96785.78;;;10.89;39.94
13581;BME280;6861;46.170;7.222;2024-02-14T10:35:47;96783.41;;;14.40;35.89
13581;BME280;6861;46.170;7.222;2024-02-14T10:38:19;96765.19;;;19.17;30.17
13581;BME280;6861;46.170;7.222;2024-02-14T10:40:48;96751.13;;;23.39;25.92
13581;BME280;6861;46.170;7.222;2024-02-14T10:43:16;96740.97;;;26.74;22.35
13581;BME280;6861;46.170;7.222;2024-02-14T10:45:45;96742.94;;;29.18;20.20
13581;BME280;6861;46.170;7.222;2024-02-14T10:48:14;96729.91;;;30.97;18.60
13581;BME280;6861;46.170;7.222;2024-02-14T10:50:47;96724.03;;;32.07;17.67
13581;BME280;6861;46.170;7.222;2024-02-14T10:53:17;96726.28;;;31.62;17.62
13581;BME280;6861;46.170;7.222;2024-02-14T10:55:48;96712.63;;;33.33;16.32
13581;BME280;6861;46.170;7.222;2024-02-14T10:58:17;96708.56;;;35.03;15.25
13581;BME280;6861;46.170;7.222;2024-02-14T11:00:47;96711.72;;;36.60;13.73
13581;BME280;6861;46.170;7.222;2024-02-14T11:03:17;96712.34;;;37.66;12.87
13581;BME280;6861;46.170;7.222;2024-02-14T11:05:46;96704.16;;;38.64;12.06
13581;BME280;6861;46.170;7.222;2024-02-14T11:08:15;96705.00;;;39.19;11.10
13581;BME280;6861;46.170;7.222;2024-02-14T11:10:53;96696.75;;;39.60;10.26
13581;BME280;6861;46.170;7.222;2024-02-14T11:13:25;96678.72;;;40.10;9.99
13581;BME280;6861;46.170;7.222;2024-02-14T11:15:54;96671.50;;;40.51;9.96
13581;BME280;6861;46.170;7.222;2024-02-14T11:18:29;96670.16;;;41.21;9.63
13581;BME280;6861;46.170;7.222;2024-02-14T11:20:58;96658.28;;;41.64;9.62
13581;BME280;6861;46.170;7.222;2024-02-14T11:23:30;96654.31;;;42.33;9.05
13581;BME280;6861;46.170;7.222;2024-02-14T11:26:00;96651.38;;;42.82;8.92
13581;BME280;6861;46.170;7.222;2024-02-14T11:28:30;96651.53;;;43.48;8.57
13581;BME280;6861;46.170;7.222;2024-02-14T11:31:00;96644.84;;;44.21;8.00
13581;BME280;6861;46.170;7.222;2024-02-14T11:33:32;96634.81;;;44.86;7.74
13581;BME280;6861;46.170;7.222;2024-02-14T11:36:08;96634.06;;;44.85;7.29
13581;BME280;6861;46.170;7.222;2024-02-14T11:38:40;96623.56;;;43.97;7.48
13581;BME280;6861;46.170;7.222;2024-02-14T11:41:10;96622.25;;;43.27;7.73
13581;BME280;6861;46.170;7.222;2024-02-14T11:43:38;96622.41;;;43.14;7.82
13581;BME280;6861;46.170;7.222;2024-02-14T11:46:07;96619.72;;;42.96;7.85
13581;BME280;6861;46.170;7.222;2024-02-14T11:48:38;96626.69;;;42.45;7.54
13581;BME280;6861;46.170;7.222;2024-02-14T11:51:07;96630.31;;;41.56;7.98
13581;BME280;6861;46.170;7.222;2024-02-14T11:53:38;96626.75;;;38.34;9.01
13581;BME280;6861;46.170;7.222;2024-02-14T11:56:07;96630.31;;;34.05;10.95
13581;BME280;6861;46.170;7.222;2024-02-14T11:58:36;96616.25;;;30.65;12.80
13581;BME280;6861;46.170;7.222;2024-02-14T12:01:04;96633.84;;;27.96;14.50
13581;BME280;6861;46.170;7.222;2024-02-14T12:03:33;96637.38;;;25.72;15.58
13581;BME280;6861;46.170;7.222;2024-02-14T12:06:04;96630.44;;;23.82;16.28
13581;BME280;6861;46.170;7.222;2024-02-14T12:08:34;96633.41;;;22.28;17.33
13581;BME280;6861;46.170;7.222;2024-02-14T12:11:02;96630.97;;;21.21;18.06
13581;BME280;6861;46.170;7.222;2024-02-14T12:13:30;96638.09;;;20.65;18.81
13581;BME280;6861;46.170;7.222;2024-02-14T12:16:02;96633.75;;;20.21;18.96
13581;BME280;6861;46.170;7.222;2024-02-14T12:18:30;96632.56;;;19.79;19.19
13581;BME280;6861;46.170;7.222;2024-02-14T12:21:05;96633.44;;;19.35;20.06
13581;BME280;6861;46.170;7.222;2024-02-14T12:23:35;96640.00;;;19.15;20.60
13581;BME280;6861;46.170;7.222;2024-02-14T12:26:04;96638.97;;;18.93;20.98
13581;BME280;6861;46.170;7.222;2024-02-14T12:28:33;96635.81;;;18.69;21.07
13581;BME280;6861;46.170;7.222;2024-02-14T12:31:03;96631.03;;;18.44;20.95
13581;BME280;6861;46.170;7.222;2024-02-14T12:33:32;96621.59;;;18.15;21.71
13581;BME280;6861;46.170;7.222;2024-02-14T12:36:02;96628.75;;;18.01;22.00
13581;BME280;6861;46.170;7.222;2024-02-14T12:38:33;96629.34;;;17.84;23.06
13581;BME280;6861;46.170;7.222;2024-02-14T12:41:01;96628.38;;;17.66;22.92
13581;BME280;6861;46.170;7.222;2024-02-14T12:43:30;96625.38;;;17.54;23.60
13581;BME280;6861;46.170;7.222;2024-02-14T12:45:58;96621.06;;;17.45;23.96
13581;BME280;6861;46.170;7.222;2024-02-14T12:48:26;96620.19;;;17.49;23.96
13581;BME280;6861;46.170;7.222;2024-02-14T12:50:56;96615.78;;;17.58;24.26
13581;BME280;6861;46.170;7.222;2024-02-14T12:53:25;96624.41;;;17.64;23.92
13581;BME280;6861;46.170;7.222;2024-02-14T12:55:55;96617.19;;;17.69;24.71
13581;BME280;6861;46.170;7.222;2024-02-14T12:58:23;96621.31;;;17.76;23.98
13581;BME280;6861;46.170;7.222;2024-02-14T13:00:51;96625.81;;;17.75;23.91
13581;BME280;6861;46.170;7.222;2024-02-14T13:03:20;96629.69;;;17.64;24.15
13581;BME280;6861;46.170;7.222;2024-02-14T13:05:48;96632.25;;;17.55;24.71
13581;BME280;6861;46.170;7.222;2024-02-14T13:08:17;96642.03;;;17.41;25.30
13581;BME280;6861;46.170;7.222;2024-02-14T13:10:46;96633.22;;;17.32;25.54
13581;BME280;6861;46.170;7.222;2024-02-14T13:13:15;96627.09;;;17.18;25.52
13581;BME280;6861;46.170;7.222;2024-02-14T13:15:44;96626.69;;;17.11;26.01
13581;BME280;6861;46.170;7.222;2024-02-14T13:18:12;96617.19;;;17.10;26.54
13581;BME280;6861;46.170;7.222;2024-02-14T13:20:41;96611.00;;;17.00;26.27
13581;BME280;6861;46.170;7.222;2024-02-14T13:23:11;96618.00;;;16.91;27.04
13581;BME280;6861;46.170;7.222;2024-02-14T13:25:41;96615.72;;;16.85;26.59
13581;BME280;6861;46.170;7.222;2024-02-14T13:28:09;96611.81;;;16.82;26.99
13581;BME280;6861;46.170;7.222;2024-02-14T13:30:39;96610.88;;;16.73;26.65